Time;durP1;ratioP1;P1;durP2;ratioP2;P2;SDS_P1;SDS_P2;PMS_P1;PMS_P2;Temp;Humidity;BMP_temperature;BMP_pressure;BME280_temperature;BME280_humidity;BME280_pressure;Samples;Min_cycle;Max_cycle;Signal;HPM_P1;HPM_P2
2022/03/15 00:00:36;;;;;;;;;;;6.30;99.90;;;;;;5015934;28;19992;-84
2022/03/15 00:03:04;;;;;;;;;;;6.40;99.90;;;;;;5033635;28;20768;-84
2022/03/15 00:05:31;;;;;;;;;;;6.30;99.90;;;;;;5026024;28;20017;-81
2022/03/15 00:07:59;;;;;;;;;;;6.50;99.90;;;;;;5025911;28;19929;-82
2022/03/15 00:10:26;;;;;;;;;;;6.40;99.90;;;;;;5013096;28;21519;-85
2022/03/15 00:12:54;;;;;;;;;;;6.30;99.90;;;;;;5034466;28;19929;-83
2022/03/15 00:15:23;;;;;;;;;;;6.30;99.90;;;;;;5031877;28;19992;-83
2022/03/15 00:17:49;;;;;;;;;;;6.40;99.90;;;;;;5028090;28;19960;-84
2022/03/15 00:20:20;;;;;;;;;;;6.30;99.90;;;;;;5026158;28;19925;-83
2022/03/15 00:22:47;;;;;;;;;;;6.20;99.90;;;;;;5026881;28;19956;-83
2022/03/15 00:25:16;;;;;;;;;;;6.20;99.90;;;;;;5025926;28;19944;-83
2022/03/15 00:27:42;;;;;;;;;;;6.20;99.90;;;;;;5026701;28;19997;-83
2022/03/15 00:30:09;;;;;;;;;;;6.10;99.90;;;;;;5008166;28;20167;-81
2022/03/15 00:32:37;;;;;;;;;;;6.10;99.90;;;;;;5027267;28;19929;-83
2022/03/15 00:35:16;;;;;;;;;;;6.00;99.90;;;;;;5010121;28;19985;-82
2022/03/15 00:37:42;;;;;;;;;;;5.90;99.90;;;;;;5026361;28;19925;-82
2022/03/15 00:40:10;;;;;;;;;;;5.90;99.90;;;;;;5011240;28;19936;-81
2022/03/15 00:42:37;;;;;;;;;;;5.90;99.90;;;;;;5012041;28;20418;-83
2022/03/15 00:45:05;;;;;;;;;;;5.80;99.90;;;;;;5031408;28;19935;-82
2022/03/15 00:47:32;;;;;;;;;;;5.80;99.90;;;;;;5034775;28;19909;-83
2022/03/15 00:50:00;;;;;;;;;;;5.80;99.90;;;;;;5034341;28;19925;-81
2022/03/15 00:52:27;;;;;;;;;;;5.80;99.90;;;;;;5010644;28;19940;-81
2022/03/15 00:54:53;;;;;;;;;;;5.70;99.90;;;;;;5009629;28;19936;-81
2022/03/15 00:57:20;;;;;;;;;;;5.70;99.90;;;;;;5009595;28;19929;-81
2022/03/15 00:59:47;;;;;;;;;;;5.70;99.90;;;;;;5008750;28;19936;-84
2022/03/15 01:02:14;;;;;;;;;;;5.70;99.90;;;;;;5025521;28;19929;-81
2022/03/15 01:04:41;;;;;;;;;;;5.60;99.90;;;;;;5025754;28;20106;-81
2022/03/15 01:07:11;;;;;;;;;;;5.70;99.90;;;;;;5024049;28;19936;-82
2022/03/15 01:09:39;;;;;;;;;;;5.60;99.90;;;;;;5026982;28;20687;-82
2022/03/15 01:12:07;;;;;;;;;;;5.10;99.90;;;;;;5022783;28;19960;-82
2022/03/15 01:14:34;;;;;;;;;;;5.50;99.90;;;;;;5024634;28;19932;-82
2022/03/15 01:17:03;;;;;;;;;;;5.50;99.90;;;;;;5022240;28;19940;-84
2022/03/15 01:19:30;;;;;;;;;;;5.40;99.90;;;;;;5025390;28;19925;-82
2022/03/15 01:22:00;;;;;;;;;;;5.40;99.90;;;;;;5025426;28;20016;-83
2022/03/15 01:24:29;;;;;;;;;;;5.40;99.90;;;;;;5032681;28;19971;-82
2022/03/15 01:26:57;;;;;;;;;;;5.40;99.90;;;;;;5031364;28;20824;-81
2022/03/15 01:29:25;;;;;;;;;;;5.40;99.90;;;;;;5027754;28;19944;-82
2022/03/15 01:31:52;;;;;;;;;;;5.40;99.90;;;;;;5026190;28;19929;-82
2022/03/15 01:34:19;;;;;;;;;;;5.40;99.90;;;;;;5024283;28;19929;-82
2022/03/15 01:36:46;;;;;;;;;;;5.40;99.90;;;;;;5026167;28;19932;-83
2022/03/15 01:39:13;;;;;;;;;;;5.40;99.90;;;;;;5010902;28;20011;-83
2022/03/15 01:41:45;;;;;;;;;;;5.40;99.90;;;;;;5028170;28;19925;-84
2022/03/15 01:44:16;;;;;;;;;;;5.40;99.90;;;;;;5035134;28;19983;-82
2022/03/15 01:46:44;;;;;;;;;;;5.40;99.90;;;;;;5026515;28;19925;-83
2022/03/15 01:49:13;;;;;;;;;;;5.50;99.90;;;;;;5010798;28;19932;-83
2022/03/15 01:51:42;;;;;;;;;;;5.50;99.90;;;;;;5008340;28;19936;-83
2022/03/15 01:54:09;;;;;;;;;;;5.60;99.90;;;;;;5027061;28;19939;-81
2022/03/15 01:56:41;;;;;;;;;;;5.60;99.90;;;;;;5026618;28;19999;-81
2022/03/15 01:59:10;;;;;;;;;;;5.60;99.90;;;;;;5024282;28;20019;-80
2022/03/15 02:01:37;;;;;;;;;;;5.60;99.90;;;;;;5010246;28;19929;-81
2022/03/15 02:04:04;;;;;;;;;;;5.60;99.90;;;;;;5029363;28;19925;-82
2022/03/15 02:06:30;;;;;;;;;;;5.60;99.90;;;;;;5028851;28;20034;-81
2022/03/15 02:08:57;;;;;;;;;;;5.70;99.90;;;;;;5027331;28;20480;-80
2022/03/15 02:11:28;;;;;;;;;;;5.60;99.90;;;;;;5026745;28;19987;-81
2022/03/15 02:13:55;;;;;;;;;;;5.50;99.90;;;;;;5028569;28;20028;-81
2022/03/15 02:16:23;;;;;;;;;;;5.50;99.90;;;;;;5029369;28;19925;-82
2022/03/15 02:18:50;;;;;;;;;;;5.50;99.90;;;;;;5029035;28;19987;-82
2022/03/15 02:21:18;;;;;;;;;;;5.50;99.90;;;;;;5027055;28;20977;-81
2022/03/15 02:23:45;;;;;;;;;;;5.50;99.90;;;;;;5028064;28;19929;-81
2022/03/15 02:26:13;;;;;;;;;;;5.50;99.90;;;;;;5028201;28;19925;-82
2022/03/15 02:28:40;;;;;;;;;;;5.50;99.90;;;;;;5028277;28;19929;-84
2022/03/15 02:31:06;;;;;;;;;;;5.50;99.90;;;;;;5008434;28;19924;-83
2022/03/15 02:33:33;;;;;;;;;;;5.50;99.90;;;;;;5009824;28;19932;-83
2022/03/15 02:36:00;;;;;;;;;;;5.50;99.90;;;;;;5028681;28;20286;-85
2022/03/15 02:38:29;;;;;;;;;;;5.50;99.90;;;;;;5029527;28;20727;-84
2022/03/15 02:40:56;;;;;;;;;;;5.50;99.90;;;;;;5017514;28;19925;-84
2022/03/15 02:43:23;;;;;;;;;;;5.50;99.90;;;;;;5027440;28;19921;-81
2022/03/15 02:45:49;;;;;;;;;;;5.60;99.90;;;;;;5018800;28;20032;-84
2022/03/15 02:48:16;;;;;;;;;;;5.60;99.90;;;;;;5005784;28;20014;-84
2022/03/15 02:50:43;;;;;;;;;;;5.60;99.90;;;;;;5022010;28;20421;-85
2022/03/15 02:53:10;;;;;;;;;;;5.70;99.90;;;;;;5025191;28;20448;-83
2022/03/15 02:55:38;;;;;;;;;;;5.70;99.90;;;;;;5007880;28;19921;-84
2022/03/15 02:58:04;;;;;;;;;;;5.70;99.90;;;;;;5025883;28;19982;-84
2022/03/15 03:00:31;;;;;;;;;;;5.80;99.90;;;;;;5026085;28;19940;-83
2022/03/15 03:02:58;;;;;;;;;;;5.80;99.90;;;;;;5023058;28;19992;-85
2022/03/15 03:05:25;;;;;;;;;;;5.80;99.90;;;;;;5024475;28;19932;-82
2022/03/15 03:07:52;;;;;;;;;;;5.80;99.90;;;;;;5023352;28;19928;-85
2022/03/15 03:10:20;;;;;;;;;;;5.80;99.90;;;;;;5021959;28;19928;-84
2022/03/15 03:12:49;;;;;;;;;;;5.90;99.90;;;;;;5008300;28;20039;-83
2022/03/15 03:15:21;;;;;;;;;;;5.90;99.90;;;;;;5028215;28;19980;-83
2022/03/15 03:17:48;;;;;;;;;;;7.60;99.90;;;;;;5030672;28;19928;-85
2022/03/15 03:20:19;;;;;;;;;;;5.90;99.90;;;;;;5034582;28;19939;-85
2022/03/15 03:22:46;;;;;;;;;;;5.90;99.90;;;;;;5024731;28;20702;-83
2022/03/15 03:25:15;;;;;;;;;;;6.00;99.90;;;;;;5006803;28;19937;-83
2022/03/15 03:27:42;;;;;;;;;;;5.90;99.90;;;;;;5016661;28;20005;-84
2022/03/15 03:30:11;;;;;;;;;;;6.00;99.90;;;;;;5034421;28;19936;-83
2022/03/15 03:32:37;;;;;;;;;;;6.00;99.90;;;;;;5035745;28;19980;-83
2022/03/15 03:35:04;;;;;;;;;;;6.00;99.90;;;;;;5035061;28;19935;-81
2022/03/15 03:37:31;;;;;;;;;;;6.00;99.90;;;;;;5032023;28;19932;-84
2022/03/15 03:39:58;;;;;;;;;;;6.00;99.90;;;;;;5027806;28;21212;-83
2022/03/15 03:42:25;;;;;;;;;;;6.00;99.90;;;;;;5028249;28;19955;-85
2022/03/15 03:44:52;;;;;;;;;;;6.00;99.90;;;;;;5028804;28;19958;-83
2022/03/15 03:47:20;;;;;;;;;;;6.10;99.90;;;;;;5027869;28;19993;-83
2022/03/15 03:49:47;;;;;;;;;;;6.00;99.90;;;;;;5027264;28;19935;-84
2022/03/15 03:52:14;;;;;;;;;;;6.30;99.90;;;;;;5027425;28;19928;-82
2022/03/15 03:54:40;;;;;;;;;;;6.00;99.90;;;;;;5029887;28;20365;-82
2022/03/15 03:57:07;;;;;;;;;;;6.00;99.90;;;;;;5027406;28;19921;-82
2022/03/15 03:59:34;;;;;;;;;;;;;;;;;;5025208;28;19932;-83
2022/03/15 04:02:08;;;;;;;;;;;6.00;99.90;;;;;;5025184;28;19921;-81
2022/03/15 04:04:36;;;;;;;;;;;6.00;99.90;;;;;;5030860;28;20118;-82
2022/03/15 04:07:09;;;;;;;;;;;6.10;99.90;;;;;;5026560;28;20023;-82
2022/03/15 04:09:35;;;;;;;;;;;6.10;99.90;;;;;;5027179;28;19936;-82
2022/03/15 04:12:05;;;;;;;;;;;6.10;99.90;;;;;;5007847;28;20903;-82
2022/03/15 04:14:31;;;;;;;;;;;6.10;99.90;;;;;;5009583;28;20019;-82
2022/03/15 04:16:58;;;;;;;;;;;6.20;99.90;;;;;;5026617;28;19936;-82
2022/03/15 04:19:26;;;;;;;;;;;6.20;99.90;;;;;;5028085;28;19973;-82
2022/03/15 04:21:54;;;;;;;;;;;6.20;99.90;;;;;;5028020;28;19929;-84
2022/03/15 04:24:22;;;;;;;;;;;6.20;99.90;;;;;;5029440;28;19979;-83
2022/03/15 04:26:49;;;;;;;;;;;6.20;99.90;;;;;;5023243;28;19933;-83
2022/03/15 04:29:16;;;;;;;;;;;6.20;99.90;;;;;;5033700;28;19999;-84
2022/03/15 04:31:50;;;;;;;;;;;6.20;99.90;;;;;;5040144;28;20125;-81
2022/03/15 04:34:17;;;;;;;;;;;6.20;99.90;;;;;;5014691;28;19931;-82
2022/03/15 04:36:44;;;;;;;;;;;6.10;99.90;;;;;;5029656;28;19929;-84
2022/03/15 04:39:13;;;;;;;;;;;6.10;99.90;;;;;;5026722;28;19933;-82
2022/03/15 04:41:40;;;;;;;;;;;6.10;99.90;;;;;;5026653;28;19932;-82
2022/03/15 04:44:07;;;;;;;;;;;6.10;99.90;;;;;;5027556;28;19944;-83
2022/03/15 04:46:33;;;;;;;;;;;6.10;99.90;;;;;;5026637;28;19952;-82
2022/03/15 04:49:00;;;;;;;;;;;6.10;99.90;;;;;;5028289;28;19929;-81
2022/03/15 04:51:27;;;;;;;;;;;6.20;99.90;;;;;;5026482;28;19925;-83
2022/03/15 04:53:54;;;;;;;;;;;6.10;99.90;;;;;;5026534;28;19936;-82
2022/03/15 04:56:23;;;;;;;;;;;6.10;99.90;;;;;;5024550;28;19929;-83
2022/03/15 04:58:51;;;;;;;;;;;6.10;99.90;;;;;;5010765;28;19975;-81
2022/03/15 05:01:17;;;;;;;;;;;6.10;99.90;;;;;;5026608;28;19925;-83
2022/03/15 05:03:44;;;;;;;;;;;6.10;99.90;;;;;;5026404;28;20460;-83
2022/03/15 05:06:11;;;;;;;;;;;6.20;99.90;;;;;;5010531;28;19948;-83
2022/03/15 05:08:38;;;;;;;;;;;6.20;99.90;;;;;;5026180;28;19936;-83
2022/03/15 05:11:06;;;;;;;;;;;6.20;99.90;;;;;;5025930;28;21014;-83
2022/03/15 05:13:35;;;;;;;;;;;6.20;99.90;;;;;;5028745;28;19916;-83
2022/03/15 05:16:03;;;;;;;;;;;6.20;99.90;;;;;;5035440;28;19932;-82
2022/03/15 05:18:30;;;;;;;;;;;6.30;99.90;;;;;;5035311;28;19964;-82
2022/03/15 05:20:57;;;;;;;;;;;6.30;99.90;;;;;;5027134;28;20798;-82
2022/03/15 05:23:23;;;;;;;;;;;6.30;99.90;;;;;;5029629;28;19967;-87
2022/03/15 05:25:50;;;;;;;;;;;6.30;99.90;;;;;;5030400;28;19944;-84
2022/03/15 05:28:17;;;;;;;;;;;6.40;99.90;;;;;;5013202;28;19937;-84
2022/03/15 05:30:45;;;;;;;;;;;6.20;99.90;;;;;;5030413;28;19937;-87
2022/03/15 05:33:12;;;;;;;;;;;6.40;99.90;;;;;;5031463;28;19944;-85
2022/03/15 05:35:41;;;;;;;;;;;6.40;99.90;;;;;;5031094;28;19931;-84
2022/03/15 05:38:09;;;;;;;;;;;6.40;99.90;;;;;;5028155;28;20036;-85
2022/03/15 05:40:36;;;;;;;;;;;6.40;99.90;;;;;;5030267;28;19964;-83
2022/03/15 05:43:02;;;;;;;;;;;6.40;99.90;;;;;;5030294;28;19937;-85
2022/03/15 05:45:29;;;;;;;;;;;6.40;99.90;;;;;;5036540;28;19952;-86
2022/03/15 05:47:57;;;;;;;;;;;6.50;99.90;;;;;;5038540;28;19950;-85
2022/03/15 05:50:24;;;;;;;;;;;6.50;99.90;;;;;;5017968;28;19929;-85
2022/03/15 05:52:52;;;;;;;;;;;6.50;99.90;;;;;;5020030;28;19921;-85
2022/03/15 05:55:21;;;;;;;;;;;6.50;99.90;;;;;;5034925;28;19929;-86
2022/03/15 05:57:48;;;;;;;;;;;6.50;99.90;;;;;;5034498;28;19928;-85
2022/03/15 06:00:15;;;;;;;;;;;6.50;99.90;;;;;;5038635;28;20021;-86
2022/03/15 06:02:49;;;;;;;;;;;6.50;99.90;;;;;;5035116;28;19921;-86
2022/03/15 06:05:36;;;;;;;;;;;6.50;99.90;;;;;;5036513;28;20019;-86
2022/03/15 06:08:12;;;;;;;;;;;6.50;99.90;;;;;;5035447;28;19928;-86
2022/03/15 06:10:39;;;;;;;;;;;6.50;99.90;;;;;;5029890;28;19975;-86
2022/03/15 06:13:06;;;;;;;;;;;6.50;99.90;;;;;;5032037;28;19974;-86
2022/03/15 06:15:33;;;;;;;;;;;6.70;99.90;;;;;;5030008;28;19990;-86
2022/03/15 06:18:01;;;;;;;;;;;6.60;99.90;;;;;;5007320;28;19929;-86
2022/03/15 06:20:29;;;;;;;;;;;6.70;99.90;;;;;;5009948;28;19929;-85
2022/03/15 06:23:00;;;;;;;;;;;6.70;99.90;;;;;;5027061;28;20020;-85
2022/03/15 06:25:30;;;;;;;;;;;6.70;99.90;;;;;;5007051;28;21300;-85
2022/03/15 06:27:56;;;;;;;;;;;6.70;99.90;;;;;;5024333;28;20010;-85
2022/03/15 06:30:24;;;;;;;;;;;6.80;99.90;;;;;;5008581;28;20687;-85
2022/03/15 06:32:50;;;;;;;;;;;6.80;99.90;;;;;;5029610;28;19936;-84
2022/03/15 06:35:19;;;;;;;;;;;6.80;99.90;;;;;;5025507;28;19972;-85
2022/03/15 06:37:48;;;;;;;;;;;6.90;99.90;;;;;;5033823;28;19932;-83
2022/03/15 06:40:17;;;;;;;;;;;6.90;99.90;;;;;;5030976;28;19925;-82
2022/03/15 06:42:45;;;;;;;;;;;7.00;99.90;;;;;;5037215;28;19984;-85
2022/03/15 06:45:12;;;;;;;;;;;7.00;99.90;;;;;;5025036;28;20469;-84
2022/03/15 06:47:40;;;;;;;;;;;7.10;99.90;;;;;;5021596;28;19936;-83
2022/03/15 06:50:09;;;;;;;;;;;7.20;99.90;;;;;;5034110;28;20507;-82
2022/03/15 06:52:36;;;;;;;;;;;7.30;99.90;;;;;;5016839;28;19929;-83
2022/03/15 06:55:04;;;;;;;;;;;7.40;99.90;;;;;;5025045;28;19961;-82
2022/03/15 06:57:31;;;;;;;;;;;7.50;99.90;;;;;;5023846;28;19929;-81
2022/03/15 06:59:59;;;;;;;;;;;7.70;99.90;;;;;;5024802;28;19929;-82
2022/03/15 07:02:26;;;;;;;;;;;7.70;99.90;;;;;;5025034;28;19929;-83
2022/03/15 07:04:53;;;;;;;;;;;7.80;99.90;;;;;;5025828;28;20304;-83
2022/03/15 07:07:21;;;;;;;;;;;7.80;99.90;;;;;;5030581;28;20047;-83
2022/03/15 07:09:48;;;;;;;;;;;7.90;99.90;;;;;;5030357;28;19932;-83
2022/03/15 07:12:16;;;;;;;;;;;8.00;99.90;;;;;;5025239;28;19929;-84
2022/03/15 07:14:43;;;;;;;;;;;8.00;99.90;;;;;;5020480;28;19969;-85
2022/03/15 07:17:10;;;;;;;;;;;8.10;99.90;;;;;;5019504;28;19936;-83
2022/03/15 07:19:37;;;;;;;;;;;8.20;99.90;;;;;;5024703;28;19932;-81
2022/03/15 07:22:05;;;;;;;;;;;8.30;99.90;;;;;;5006155;28;20510;-84
2022/03/15 07:24:32;;;;;;;;;;;8.50;99.90;;;;;;5021388;28;19948;-82
2022/03/15 07:26:59;;;;;;;;;;;8.50;99.90;;;;;;5023023;28;19937;-82
2022/03/15 07:29:27;;;;;;;;;;;8.60;99.90;;;;;;5027704;28;20372;-81
2022/03/15 07:31:56;;;;;;;;;;;8.70;99.90;;;;;;5005921;28;19994;-82
2022/03/15 07:34:22;;;;;;;;;;;8.70;99.90;;;;;;5023511;28;20012;-84
2022/03/15 07:36:49;;;;;;;;;;;8.80;99.90;;;;;;5026199;28;19948;-85
2022/03/15 07:39:16;;;;;;;;;;;8.80;99.90;;;;;;5029448;28;19929;-83
2022/03/15 07:41:43;;;;;;;;;;;8.90;99.90;;;;;;5028619;28;20707;-84
2022/03/15 07:44:10;;;;;;;;;;;8.60;99.90;;;;;;5024786;28;20039;-84
2022/03/15 07:46:40;;;;;;;;;;;9.00;99.90;;;;;;5010432;28;19925;-85
2022/03/15 07:49:07;;;;;;;;;;;9.00;99.90;;;;;;5027245;28;19929;-84
2022/03/15 07:51:34;;;;;;;;;;;9.10;99.90;;;;;;5024578;28;19975;-84
2022/03/15 07:54:00;;;;;;;;;;;9.20;99.90;;;;;;5023715;28;20286;-83
2022/03/15 07:56:27;;;;;;;;;;;9.30;99.90;;;;;;5009659;28;20317;-83
2022/03/15 07:58:54;;;;;;;;;;;9.40;99.90;;;;;;5028582;28;19928;-83
2022/03/15 08:01:21;;;;;;;;;;;9.60;99.90;;;;;;5024946;28;20032;-82
2022/03/15 08:03:52;;;;;;;;;;;9.70;99.90;;;;;;5028717;28;19929;-83
2022/03/15 08:06:19;;;;;;;;;;;9.80;99.90;;;;;;5030815;28;19929;-82
2022/03/15 08:08:48;;;;;;;;;;;9.90;99.90;;;;;;5032149;28;19936;-83
2022/03/15 08:11:15;;;;;;;;;;;10.00;99.90;;;;;;5028216;28;21043;-82
2022/03/15 08:13:42;;;;;;;;;;;10.10;99.90;;;;;;5029782;28;19929;-82
2022/03/15 08:16:09;;;;;;;;;;;10.20;99.90;;;;;;5029139;28;19929;-83
2022/03/15 08:18:36;;;;;;;;;;;10.40;99.90;;;;;;5029698;28;20397;-82
2022/03/15 08:21:05;;;;;;;;;;;10.50;99.90;;;;;;5028961;28;20028;-83
2022/03/15 08:23:31;;;;;;;;;;;10.60;99.90;;;;;;5024329;28;20032;-83
2022/03/15 08:25:58;;;;;;;;;;;10.70;99.90;;;;;;5009700;28;19928;-83
2022/03/15 08:28:26;;;;;;;;;;;10.80;99.90;;;;;;5008840;28;19929;-83
2022/03/15 08:30:59;;;;;;;;;;;10.90;99.90;;;;;;5020423;28;20027;-82
2022/03/15 08:33:26;;;;;;;;;;;10.90;99.90;;;;;;5008986;28;19929;-82
2022/03/15 08:35:53;;;;;;;;;;;11.00;99.90;;;;;;5007789;28;20141;-82
2022/03/15 08:38:21;;;;;;;;;;;11.10;99.90;;;;;;5025409;28;20565;-83
2022/03/15 08:40:49;;;;;;;;;;;11.10;99.90;;;;;;5023385;28;19936;-82
2022/03/15 08:43:17;;;;;;;;;;;11.10;99.90;;;;;;5006259;28;20039;-82
2022/03/15 08:45:44;;;;;;;;;;;11.20;99.90;;;;;;5026722;28;20181;-83
2022/03/15 08:48:11;;;;;;;;;;;11.30;99.90;;;;;;5022798;28;20051;-83
2022/03/15 08:50:37;;;;;;;;;;;11.30;99.90;;;;;;5024573;28;19944;-83
2022/03/15 08:53:05;;;;;;;;;;;11.40;99.90;;;;;;5022354;28;19935;-82
2022/03/15 08:55:33;;;;;;;;;;;11.50;99.90;;;;;;5022546;28;19991;-82
2022/03/15 08:58:00;;;;;;;;;;;11.60;99.90;;;;;;5018782;28;19929;-82
2022/03/15 09:00:27;;;;;;;;;;;11.70;99.90;;;;;;5023538;28;19937;-83
2022/03/15 09:02:53;;;;;;;;;;;11.70;99.90;;;;;;5024857;28;19960;-82
2022/03/15 09:05:20;;;;;;;;;;;11.80;99.90;;;;;;5023604;28;19924;-83
2022/03/15 09:07:51;;;;;;;;;;;11.90;99.90;;;;;;5026079;28;19994;-83
2022/03/15 09:10:22;;;;;;;;;;;11.90;99.90;;;;;;5010964;28;20071;-82
2022/03/15 09:12:52;;;;;;;;;;;12.00;99.90;;;;;;5033203;28;19929;-82
2022/03/15 09:15:19;;;;;;;;;;;12.00;99.90;;;;;;5024834;28;20020;-82
2022/03/15 09:17:46;;;;;;;;;;;12.00;99.90;;;;;;5026026;28;19928;-82
2022/03/15 09:20:13;;;;;;;;;;;12.10;99.90;;;;;;5027672;28;19921;-82
2022/03/15 09:22:40;;;;;;;;;;;12.20;99.90;;;;;;5031091;28;20002;-84
2022/03/15 09:25:08;;;;;;;;;;;12.20;99.90;;;;;;5028823;28;19940;-83
2022/03/15 09:27:35;;;;;;;;;;;12.30;99.90;;;;;;5033859;28;19977;-83
2022/03/15 09:30:05;;;;;;;;;;;12.30;99.90;;;;;;5026811;28;19930;-82
2022/03/15 09:32:31;;;;;;;;;;;12.30;99.90;;;;;;5029568;28;19955;-82
2022/03/15 09:34:58;;;;;;;;;;;12.40;99.90;;;;;;5030382;28;19989;-82
2022/03/15 09:37:25;;;;;;;;;;;12.50;99.90;;;;;;5024668;28;19929;-83
2022/03/15 09:39:57;;;;;;;;;;;12.50;99.90;;;;;;5028297;28;19928;-84
2022/03/15 09:42:29;;;;;;;;;;;12.60;99.90;;;;;;5011141;28;19929;-82
2022/03/15 09:44:57;;;;;;;;;;;12.60;99.90;;;;;;5001749;28;19929;-82
2022/03/15 09:47:26;;;;;;;;;;;12.60;99.90;;;;;;5000041;28;19929;-84
2022/03/15 09:49:54;;;;;;;;;;;12.70;99.90;;;;;;4991750;28;19928;-83
2022/03/15 09:52:21;;;;;;;;;;;12.70;99.90;;;;;;5024006;28;19924;-84
2022/03/15 09:54:48;;;;;;;;;;;12.60;99.90;;;;;;5017706;28;20086;-84
2022/03/15 09:57:15;;;;;;;;;;;12.60;99.90;;;;;;5004483;28;19928;-83
2022/03/15 09:59:42;;;;;;;;;;;12.60;99.90;;;;;;5003079;28;19929;-83
2022/03/15 10:02:10;;;;;;;;;;;12.70;99.90;;;;;;5006436;28;19929;-83
2022/03/15 10:04:38;;;;;;;;;;;12.60;99.90;;;;;;4999333;28;19929;-84
2022/03/15 10:07:05;;;;;;;;;;;12.60;99.90;;;;;;4998692;28;19996;-84
2022/03/15 10:09:32;;;;;;;;;;;12.60;99.90;;;;;;5020466;28;19915;-83
2022/03/15 10:12:08;;;;;;;;;;;12.60;99.90;;;;;;5025213;28;19959;-82
2022/03/15 10:14:42;;;;;;;;;;;12.60;99.90;;;;;;5031433;28;19932;-84
2022/03/15 10:17:11;;;;;;;;;;;12.60;99.90;;;;;;5032542;28;20019;-83
2022/03/15 10:19:39;;;;;;;;;;;12.60;99.90;;;;;;5018852;28;19925;-84
2022/03/15 10:22:09;;;;;;;;;;;12.60;99.90;;;;;;5035856;28;20007;-84
2022/03/15 10:24:38;;;;;;;;;;;12.60;99.90;;;;;;5033218;28;19979;-84
2022/03/15 10:27:06;;;;;;;;;;;12.60;99.90;;;;;;5007945;28;19928;-84
2022/03/15 10:29:34;;;;;;;;;;;12.60;99.90;;;;;;5028267;28;19924;-83
2022/03/15 10:32:03;;;;;;;;;;;12.60;99.90;;;;;;5029487;28;19969;-84
2022/03/15 10:34:29;;;;;;;;;;;12.70;99.90;;;;;;5034255;28;19929;-83
2022/03/15 10:36:57;;;;;;;;;;;12.80;99.90;;;;;;5035614;28;19936;-83
2022/03/15 10:39:25;;;;;;;;;;;12.90;99.90;;;;;;5031900;28;20017;-84
2022/03/15 10:41:53;;;;;;;;;;;12.90;99.90;;;;;;5034556;28;20015;-84
2022/03/15 10:44:21;;;;;;;;;;;13.00;99.90;;;;;;5041004;28;19940;-84
2022/03/15 10:47:00;;;;;;;;;;;13.00;99.90;;;;;;5012036;28;19929;-84
2022/03/15 10:49:26;;;;;;;;;;;13.10;99.90;;;;;;5027965;28;19928;-84
2022/03/15 10:51:54;;;;;;;;;;;13.10;99.90;;;;;;5028081;28;19996;-84
2022/03/15 10:54:23;;;;;;;;;;;13.20;99.90;;;;;;5027305;28;19939;-84
2022/03/15 10:56:54;;;;;;;;;;;13.30;99.90;;;;;;5030683;28;20032;-83
2022/03/15 10:59:21;;;;;;;;;;;13.30;99.90;;;;;;5029897;28;21483;-82
2022/03/15 11:01:48;;;;;;;;;;;13.40;99.90;;;;;;5030851;28;19929;-83
2022/03/15 11:04:16;;;;;;;;;;;13.50;99.90;;;;;;5031242;28;20143;-83
2022/03/15 11:06:44;;;;;;;;;;;13.50;99.90;;;;;;5029810;28;20036;-83
2022/03/15 11:09:16;;;;;;;;;;;13.50;99.90;;;;;;5028683;28;20576;-83
2022/03/15 11:11:46;;;;;;;;;;;13.60;99.90;;;;;;5015612;28;20393;-83
2022/03/15 11:14:14;;;;;;;;;;;13.50;99.90;;;;;;5033996;28;19929;-85
2022/03/15 11:16:42;;;;;;;;;;;13.50;99.90;;;;;;5036702;28;19924;-83
2022/03/15 11:19:13;;;;;;;;;;;13.50;99.90;;;;;;5032030;28;19921;-83
2022/03/15 11:21:44;;;;;;;;;;;13.50;99.90;;;;;;5030583;28;20447;-84
2022/03/15 11:24:12;;;;;;;;;;;13.50;99.90;;;;;;5032810;28;19952;-84
2022/03/15 11:26:44;;;;;;;;;;;13.60;99.90;;;;;;5034641;28;19921;-83
2022/03/15 11:29:13;;;;;;;;;;;13.70;99.90;;;;;;5036587;28;19949;-84
2022/03/15 11:31:41;;;;;;;;;;;13.70;99.90;;;;;;5019685;28;19959;-85
2022/03/15 11:34:08;;;;;;;;;;;13.80;99.90;;;;;;5020566;28;20027;-83
2022/03/15 11:36:36;;;;;;;;;;;13.80;99.90;;;;;;5037473;28;19921;-85
2022/03/15 11:39:03;;;;;;;;;;;13.90;99.90;;;;;;5036981;28;19984;-84
2022/03/15 11:41:31;;;;;;;;;;;13.90;99.90;;;;;;5025165;28;19929;-83
2022/03/15 11:44:05;;;;;;;;;;;14.00;99.90;;;;;;5034843;28;20008;-84
2022/03/15 11:46:35;;;;;;;;;;;14.10;99.90;;;;;;5033213;28;20015;-84
2022/03/15 11:49:09;;;;;;;;;;;14.10;99.90;;;;;;5031379;28;19928;-85
2022/03/15 11:51:42;;;;;;;;;;;14.30;99.90;;;;;;5033703;28;19921;-84
2022/03/15 11:54:12;;;;;;;;;;;14.40;99.90;;;;;;5037441;28;20525;-84
2022/03/15 11:56:41;;;;;;;;;;;14.60;99.90;;;;;;5031013;28;19935;-84
2022/03/15 11:59:08;;;;;;;;;;;14.60;99.90;;;;;;5030266;28;19929;-83
2022/03/15 12:01:46;;;;;;;;;;;14.60;99.90;;;;;;5031216;28;19932;-83
2022/03/15 12:04:15;;;;;;;;;;;14.60;99.90;;;;;;5030712;28;20116;-83
2022/03/15 12:06:50;;;;;;;;;;;14.60;99.90;;;;;;5031218;28;20004;-83
2022/03/15 12:09:21;;;;;;;;;;;14.50;99.90;;;;;;5027026;28;19929;-82
2022/03/15 12:11:47;;;;;;;;;;;14.50;99.90;;;;;;5010928;28;19994;-83
2022/03/15 12:14:17;;;;;;;;;;;14.40;99.90;;;;;;5025039;28;19978;-82
2022/03/15 12:16:47;;;;;;;;;;;14.50;99.90;;;;;;5031435;28;19928;-81
2022/03/15 12:19:23;;;;;;;;;;;14.60;99.90;;;;;;5031750;28;19932;-82
2022/03/15 12:21:53;;;;;;;;;;;14.70;99.90;;;;;;5030113;28;19929;-82
2022/03/15 12:24:28;;;;;;;;;;;14.70;99.90;;;;;;5030909;28;20023;-82
2022/03/15 12:27:01;;;;;;;;;;;14.80;99.90;;;;;;5031169;28;19929;-82
2022/03/15 12:29:29;;;;;;;;;;;14.70;99.90;;;;;;5009568;28;19925;-84
2022/03/15 12:31:58;;;;;;;;;;;14.80;99.90;;;;;;5023297;28;19929;-82
2022/03/15 12:34:25;;;;;;;;;;;14.90;99.90;;;;;;5027031;28;19921;-82
2022/03/15 12:36:53;;;;;;;;;;;15.00;99.90;;;;;;5030408;28;19921;-83
2022/03/15 12:39:21;;;;;;;;;;;15.10;99.90;;;;;;5017077;28;19926;-82
2022/03/15 12:41:50;;;;;;;;;;;15.20;99.90;;;;;;5014808;28;19952;-82
2022/03/15 12:44:22;;;;;;;;;;;15.30;99.90;;;;;;5017821;28;19936;-82
2022/03/15 12:46:49;;;;;;;;;;;15.20;99.90;;;;;;5025558;28;19921;-83
2022/03/15 12:49:18;;;;;;;;;;;15.20;99.90;;;;;;5039701;28;19929;-82
2022/03/15 12:51:46;;;;;;;;;;;15.20;99.90;;;;;;5013467;28;19921;-81
2022/03/15 12:54:14;;;;;;;;;;;15.10;99.90;;;;;;5038840;28;20534;-83
2022/03/15 12:56:43;;;;;;;;;;;15.10;99.90;;;;;;5015524;28;19943;-84
2022/03/15 12:59:16;;;;;;;;;;;15.10;99.90;;;;;;5017046;28;19925;-83
2022/03/15 13:01:46;;;;;;;;;;;15.20;99.90;;;;;;5028485;28;19933;-83
2022/03/15 13:04:13;;;;;;;;;;;15.50;99.90;;;;;;5037302;28;19959;-82
2022/03/15 13:06:45;;;;;;;;;;;15.50;99.90;;;;;;5036952;28;20062;-82
2022/03/15 13:09:12;;;;;;;;;;;15.50;99.90;;;;;;5034994;28;19928;-83
2022/03/15 13:11:47;;;;;;;;;;;15.40;99.90;;;;;;5034232;28;19936;-81
2022/03/15 13:14:14;;;;;;;;;;;15.40;99.90;;;;;;5034982;28;19990;-84
2022/03/15 13:16:42;;;;;;;;;;;15.50;99.90;;;;;;5047659;28;19991;-84
2022/03/15 13:19:10;;;;;;;;;;;15.40;99.90;;;;;;5041223;28;19931;-82
2022/03/15 13:21:39;;;;;;;;;;;15.40;99.90;;;;;;5035943;28;19940;-82
2022/03/15 13:24:11;;;;;;;;;;;15.40;99.90;;;;;;5033885;28;19921;-82
2022/03/15 13:26:39;;;;;;;;;;;15.60;99.90;;;;;;5042230;28;20484;-85
2022/03/15 13:29:07;;;;;;;;;;;15.70;99.90;;;;;;5057626;28;19909;-85
2022/03/15 13:31:35;;;;;;;;;;;15.80;99.90;;;;;;5052115;28;19909;-84
2022/03/15 13:34:02;;;;;;;;;;;15.90;99.90;;;;;;5054443;28;19925;-84
2022/03/15 13:36:31;;;;;;;;;;;15.90;99.90;;;;;;5055953;28;20004;-83
2022/03/15 13:39:12;;;;;;;;;;;16.10;99.90;;;;;;5056693;28;19936;-84
2022/03/15 13:41:42;;;;;;;;;;;16.10;99.90;;;;;;5056390;28;20103;-85
2022/03/15 13:44:14;;;;;;;;;;;16.20;99.90;;;;;;5033853;28;19929;-82
2022/03/15 13:46:42;;;;;;;;;;;16.30;99.90;;;;;;5004068;28;19921;-83
2022/03/15 13:49:16;;;;;;;;;;;16.50;99.90;;;;;;4998619;28;19921;-83
2022/03/15 13:51:44;;;;;;;;;;;16.50;99.90;;;;;;5017710;28;19929;-85
2022/03/15 13:54:14;;;;;;;;;;;16.40;99.90;;;;;;5030724;28;19972;-80
2022/03/15 13:56:43;;;;;;;;;;;16.40;99.90;;;;;;5035603;28;19925;-80
2022/03/15 13:59:10;;;;;;;;;;;16.30;99.90;;;;;;5015091;28;20371;-80
2022/03/15 14:01:38;;;;;;;;;;;16.30;99.90;;;;;;5026450;28;19925;-81
2022/03/15 14:04:05;;;;;;;;;;;16.30;99.90;;;;;;5028722;28;20113;-80
2022/03/15 14:06:34;;;;;;;;;;;16.40;99.90;;;;;;5037988;28;19997;-83
2022/03/15 14:09:04;;;;;;;;;;;16.40;99.90;;;;;;5019911;28;19925;-81
2022/03/15 14:11:35;;;;;;;;;;;17.20;99.90;;;;;;5015320;28;19938;-81
2022/03/15 14:14:04;;;;;;;;;;;16.40;99.90;;;;;;5013689;28;19925;-81
2022/03/15 14:16:36;;;;;;;;;;;16.20;99.90;;;;;;5015314;28;19932;-81
2022/03/15 14:19:04;;;;;;;;;;;16.10;99.90;;;;;;5014720;28;19956;-81
2022/03/15 14:21:32;;;;;;;;;;;16.00;99.90;;;;;;5018569;28;19953;-81
2022/03/15 14:24:00;;;;;;;;;;;15.90;99.90;;;;;;5022416;28;20313;-81
2022/03/15 14:26:28;;;;;;;;;;;15.90;99.90;;;;;;5015350;28;19929;-81
2022/03/15 14:28:58;;;;;;;;;;;15.90;99.90;;;;;;5015503;28;19921;-82